sensor_id;sensor_type;location;lat;lon;timestamp;temperature;humidity
7445;DHT22;3764;48.126;11.594;2023-04-25T00:00:07;9.00;99.90
7445;DHT22;3764;48.126;11.594;2023-04-25T00:02:35;9.00;99.90
7445;DHT22;3764;48.126;11.594;2023-04-25T00:05:02;8.90;99.90
7445;DHT22;3764;48.126;11.594;2023-04-25T00:07:30;8.90;99.90
7445;DHT22;3764;48.126;11.594;2023-04-25T00:09:58;8.90;99.90
7445;DHT22;3764;48.126;11.594;2023-04-25T00:12:25;8.90;99.90
7445;DHT22;3764;48.126;11.594;2023-04-25T00:14:54;8.90;99.90
7445;DHT22;3764;48.126;11.594;2023-04-25T00:17:24;8.90;99.90
7445;DHT22;3764;48.126;11.594;2023-04-25T00:19:51;8.90;99.90
7445;DHT22;3764;48.126;11.594;2023-04-25T00:22:21;8.90;99.90
7445;DHT22;3764;48.126;11.594;2023-04-25T00:24:48;8.90;99.90
7445;DHT22;3764;48.126;11.594;2023-04-25T00:27:16;8.90;99.90
7445;DHT22;3764;48.126;11.594;2023-04-25T00:29:43;8.90;99.90
7445;DHT22;3764;48.126;11.594;2023-04-25T00:32:10;8.80;99.90
7445;DHT22;3764;48.126;11.594;2023-04-25T00:34:39;8.90;99.90
7445;DHT22;3764;48.126;11.594;2023-04-25T00:37:06;8.90;99.90
7445;DHT22;3764;48.126;11.594;2023-04-25T00:39:33;8.90;99.90
7445;DHT22;3764;48.126;11.594;2023-04-25T00:42:01;8.90;99.90
7445;DHT22;3764;48.126;11.594;2023-04-25T00:44:30;8.80;99.90
7445;DHT22;3764;48.126;11.594;2023-04-25T00:46:59;8.80;99.90
7445;DHT22;3764;48.126;11.594;2023-04-25T00:49:30;8.80;99.90
7445;DHT22;3764;48.126;11.594;2023-04-25T00:51:59;8.80;99.90
7445;DHT22;3764;48.126;11.594;2023-04-25T00:54:26;8.80;99.90
7445;DHT22;3764;48.126;11.594;2023-04-25T00:56:54;8.90;99.90
7445;DHT22;3764;48.126;11.594;2023-04-25T00:59:21;8.90;99.90
7445;DHT22;3764;48.126;11.594;2023-04-25T01:01:48;8.90;99.90
7445;DHT22;3764;48.126;11.594;2023-04-25T01:04:16;8.80;99.90
7445;DHT22;3764;48.126;11.594;2023-04-25T01:06:43;8.80;99.90
7445;DHT22;3764;48.126;11.594;2023-04-25T01:09:13;8.70;99.90
7445;DHT22;3764;48.126;11.594;2023-04-25T01:11:40;8.70;99.90
7445;DHT22;3764;48.126;11.594;2023-04-25T01:14:07;8.70;99.90
7445;DHT22;3764;48.126;11.594;2023-04-25T01:16:35;8.80;99.90
7445;DHT22;3764;48.126;11.594;2023-04-25T01:19:05;8.80;99.90
7445;DHT22;3764;48.126;11.594;2023-04-25T01:21:37;8.80;99.90
7445;DHT22;3764;48.126;11.594;2023-04-25T01:24:05;8.80;99.90
7445;DHT22;3764;48.126;11.594;2023-04-25T01:26:33;8.80;99.90
7445;DHT22;3764;48.126;11.594;2023-04-25T01:29:00;8.80;99.90
7445;DHT22;3764;48.126;11.594;2023-04-25T01:31:28;8.70;99.90
7445;DHT22;3764;48.126;11.594;2023-04-25T01:33:56;8.70;99.90
7445;DHT22;3764;48.126;11.594;2023-04-25T01:36:23;8.70;99.90
7445;DHT22;3764;48.126;11.594;2023-04-25T01:38:52;8.70;99.90
7445;DHT22;3764;48.126;11.594;2023-04-25T01:41:20;8.70;99.90
7445;DHT22;3764;48.126;11.594;2023-04-25T01:43:48;8.70;99.90
7445;DHT22;3764;48.126;11.594;2023-04-25T01:46:17;8.70;99.90
7445;DHT22;3764;48.126;11.594;2023-04-25T01:48:45;8.70;99.90
7445;DHT22;3764;48.126;11.594;2023-04-25T01:51:12;8.70;99.90
7445;DHT22;3764;48.126;11.594;2023-04-25T01:53:41;8.70;99.90
7445;DHT22;3764;48.126;11.594;2023-04-25T01:56:10;8.70;99.90
7445;DHT22;3764;48.126;11.594;2023-04-25T01:58:38;8.60;99.90
7445;DHT22;3764;48.126;11.594;2023-04-25T02:01:05;8.60;99.90
7445;DHT22;3764;48.126;11.594;2023-04-25T02:03:32;8.70;99.90
7445;DHT22;3764;48.126;11.594;2023-04-25T02:06:00;8.70;99.90
7445;DHT22;3764;48.126;11.594;2023-04-25T02:08:27;8.70;99.90
7445;DHT22;3764;48.126;11.594;2023-04-25T02:10:56;8.70;99.90
7445;DHT22;3764;48.126;11.594;2023-04-25T02:13:24;8.70;99.90
7445;DHT22;3764;48.126;11.594;2023-04-25T02:15:51;8.70;99.90
7445;DHT22;3764;48.126;11.594;2023-04-25T02:18:18;8.60;99.90
7445;DHT22;3764;48.126;11.594;2023-04-25T02:20:47;8.50;99.90
7445;DHT22;3764;48.126;11.594;2023-04-25T02:23:14;8.50;99.90
7445;DHT22;3764;48.126;11.594;2023-04-25T02:25:46;8.50;99.90
7445;DHT22;3764;48.126;11.594;2023-04-25T02:28:16;8.40;99.90
7445;DHT22;3764;48.126;11.594;2023-04-25T02:30:44;8.40;99.90
7445;DHT22;3764;48.126;11.594;2023-04-25T02:33:12;8.30;99.90
7445;DHT22;3764;48.126;11.594;2023-04-25T02:35:41;8.30;99.90
7445;DHT22;3764;48.126;11.594;2023-04-25T02:38:08;8.30;99.90
7445;DHT22;3764;48.126;11.594;2023-04-25T02:40:35;8.30;99.90
7445;DHT22;3764;48.126;11.594;2023-04-25T02:43:05;8.30;99.90
7445;DHT22;3764;48.126;11.594;2023-04-25T02:45:34;8.40;99.90
7445;DHT22;3764;48.126;11.594;2023-04-25T02:48:06;8.40;99.90
7445;DHT22;3764;48.126;11.594;2023-04-25T02:50:33;8.40;99.90
7445;DHT22;3764;48.126;11.594;2023-04-25T02:53:00;8.40;99.90
7445;DHT22;3764;48.126;11.594;2023-04-25T02:55:27;8.40;99.90
7445;DHT22;3764;48.126;11.594;2023-04-25T02:57:55;8.40;99.90
7445;DHT22;3764;48.126;11.594;2023-04-25T03:00:22;8.40;99.90
7445;DHT22;3764;48.126;11.594;2023-04-25T03:02:50;8.40;99.90
7445;DHT22;3764;48.126;11.594;2023-04-25T03:05:19;8.40;99.90
7445;DHT22;3764;48.126;11.594;2023-04-25T03:07:49;8.40;99.90
7445;DHT22;3764;48.126;11.594;2023-04-25T03:10:16;8.50;99.90
7445;DHT22;3764;48.126;11.594;2023-04-25T03:12:43;8.50;99.90
7445;DHT22;3764;48.126;11.594;2023-04-25T03:15:11;8.50;99.90
7445;DHT22;3764;48.126;11.594;2023-04-25T03:17:38;8.50;99.90
7445;DHT22;3764;48.126;11.594;2023-04-25T03:20:06;8.50;99.90
7445;DHT22;3764;48.126;11.594;2023-04-25T03:22:35;8.50;99.90
7445;DHT22;3764;48.126;11.594;2023-04-25T03:25:03;8.60;99.90
7445;DHT22;3764;48.126;11.594;2023-04-25T03:27:31;8.50;99.90
7445;DHT22;3764;48.126;11.594;2023-04-25T03:29:58;8.50;99.90
7445;DHT22;3764;48.126;11.594;2023-04-25T03:32:25;8.40;99.90
7445;DHT22;3764;48.126;11.594;2023-04-25T03:34:55;8.40;99.90
7445;DHT22;3764;48.126;11.594;2023-04-25T03:37:22;8.40;99.90
7445;DHT22;3764;48.126;11.594;2023-04-25T03:39:51;8.30;99.90
7445;DHT22;3764;48.126;11.594;2023-04-25T03:42:18;8.20;99.90
7445;DHT22;3764;48.126;11.594;2023-04-25T03:44:45;8.20;99.90
7445;DHT22;3764;48.126;11.594;2023-04-25T03:47:12;8.20;99.90
7445;DHT22;3764;48.126;11.594;2023-04-25T03:49:39;8.10;99.90
7445;DHT22;3764;48.126;11.594;2023-04-25T03:52:07;8.10;99.90
7445;DHT22;3764;48.126;11.594;2023-04-25T03:54:34;8.10;99.90
7445;DHT22;3764;48.126;11.594;2023-04-25T03:57:03;8.00;99.90
7445;DHT22;3764;48.126;11.594;2023-04-25T03:59:35;8.00;99.90
7445;DHT22;3764;48.126;11.594;2023-04-25T04:02:02;7.90;99.90
7445;DHT22;3764;48.126;11.594;2023-04-25T04:04:29;7.90;99.90
7445;DHT22;3764;48.126;11.594;2023-04-25T04:06:56;8.00;99.90
7445;DHT22;3764;48.126;11.594;2023-04-25T04:09:23;7.90;99.90
7445;DHT22;3764;48.126;11.594;2023-04-25T04:11:51;7.90;99.90
7445;DHT22;3764;48.126;11.594;2023-04-25T04:14:20;7.90;99.90
7445;DHT22;3764;48.126;11.594;2023-04-25T04:16:47;7.90;99.90
7445;DHT22;3764;48.126;11.594;2023-04-25T04:19:14;7.80;99.90
7445;DHT22;3764;48.126;11.594;2023-04-25T04:21:42;7.80;99.90
7445;DHT22;3764;48.126;11.594;2023-04-25T04:24:09;7.80;99.90
7445;DHT22;3764;48.126;11.594;2023-04-25T04:26:38;7.80;99.90
7445;DHT22;3764;48.126;11.594;2023-04-25T04:29:05;7.70;99.90
7445;DHT22;3764;48.126;11.594;2023-04-25T04:31:35;7.70;99.90
7445;DHT22;3764;48.126;11.594;2023-04-25T04:34:03;7.80;99.90
7445;DHT22;3764;48.126;11.594;2023-04-25T04:36:30;7.80;99.90
7445;DHT22;3764;48.126;11.594;2023-04-25T04:38:57;7.80;99.90
7445;DHT22;3764;48.126;11.594;2023-04-25T04:41:24;7.80;99.90
7445;DHT22;3764;48.126;11.594;2023-04-25T04:43:51;7.80;99.90
7445;DHT22;3764;48.126;11.594;2023-04-25T04:46:24;7.80;99.90
7445;DHT22;3764;48.126;11.594;2023-04-25T04:48:53;7.70;99.90
7445;DHT22;3764;48.126;11.594;2023-04-25T04:51:22;7.70;99.90
7445;DHT22;3764;48.126;11.594;2023-04-25T04:53:49;7.60;99.90
7445;DHT22;3764;48.126;11.594;2023-04-25T04:56:16;7.60;99.90
7445;DHT22;3764;48.126;11.594;2023-04-25T04:58:43;7.60;99.90
7445;DHT22;3764;48.126;11.594;2023-04-25T05:01:11;7.50;99.90
7445;DHT22;3764;48.126;11.594;2023-04-25T05:03:38;7.50;99.90
7445;DHT22;3764;48.126;11.594;2023-04-25T05:06:07;7.60;99.90
7445;DHT22;3764;48.126;11.594;2023-04-25T05:08:34;7.60;99.90
7445;DHT22;3764;48.126;11.594;2023-04-25T05:11:02;7.70;99.90
7445;DHT22;3764;48.126;11.594;2023-04-25T05:13:29;7.70;99.90
7445;DHT22;3764;48.126;11.594;2023-04-25T05:15:56;7.70;99.90
7445;DHT22;3764;48.126;11.594;2023-04-25T05:18:23;7.70;99.90
7445;DHT22;3764;48.126;11.594;2023-04-25T05:20:50;7.60;99.90
7445;DHT22;3764;48.126;11.594;2023-04-25T05:23:19;7.60;99.90
7445;DHT22;3764;48.126;11.594;2023-04-25T05:25:46;7.60;99.90
7445;DHT22;3764;48.126;11.594;2023-04-25T05:28:13;7.60;99.90
7445;DHT22;3764;48.126;11.594;2023-04-25T05:30:40;7.60;99.90
7445;DHT22;3764;48.126;11.594;2023-04-25T05:33:09;7.60;99.90
7445;DHT22;3764;48.126;11.594;2023-04-25T05:35:36;7.60;99.90
7445;DHT22;3764;48.126;11.594;2023-04-25T05:38:04;7.70;99.90
7445;DHT22;3764;48.126;11.594;2023-04-25T05:40:32;7.70;99.90
7445;DHT22;3764;48.126;11.594;2023-04-25T05:42:59;7.80;99.90
7445;DHT22;3764;48.126;11.594;2023-04-25T05:45:26;7.80;99.90
7445;DHT22;3764;48.126;11.594;2023-04-25T05:47:54;7.90;99.90
7445;DHT22;3764;48.126;11.594;2023-04-25T05:50:21;8.00;99.90
7445;DHT22;3764;48.126;11.594;2023-04-25T05:52:49;8.00;99.90
7445;DHT22;3764;48.126;11.594;2023-04-25T05:55:16;8.10;99.90
7445;DHT22;3764;48.126;11.594;2023-04-25T05:57:45;8.20;99.90
7445;DHT22;3764;48.126;11.594;2023-04-25T06:00:13;8.20;99.90
7445;DHT22;3764;48.126;11.594;2023-04-25T06:02:41;8.10;99.90
7445;DHT22;3764;48.126;11.594;2023-04-25T06:05:09;8.20;99.90
7445;DHT22;3764;48.126;11.594;2023-04-25T06:07:36;8.20;99.90
7445;DHT22;3764;48.126;11.594;2023-04-25T06:10:04;8.20;99.90
7445;DHT22;3764;48.126;11.594;2023-04-25T06:12:32;8.10;99.90
7445;DHT22;3764;48.126;11.594;2023-04-25T06:15:01;8.00;99.90
7445;DHT22;3764;48.126;11.594;2023-04-25T06:17:28;7.90;99.90
7445;DHT22;3764;48.126;11.594;2023-04-25T06:19:55;7.80;99.90
7445;DHT22;3764;48.126;11.594;2023-04-25T06:22:22;7.80;99.90
7445;DHT22;3764;48.126;11.594;2023-04-25T06:24:49;7.60;99.90
7445;DHT22;3764;48.126;11.594;2023-04-25T06:27:16;7.60;99.90
7445;DHT22;3764;48.126;11.594;2023-04-25T06:29:43;7.60;99.90
7445;DHT22;3764;48.126;11.594;2023-04-25T06:32:12;7.50;99.90
7445;DHT22;3764;48.126;11.594;2023-04-25T06:34:39;7.50;99.90
7445;DHT22;3764;48.126;11.594;2023-04-25T06:37:06;7.50;99.90
7445;DHT22;3764;48.126;11.594;2023-04-25T06:39:33;7.60;99.90
7445;DHT22;3764;48.126;11.594;2023-04-25T06:42:00;7.60;99.90
7445;DHT22;3764;48.126;11.594;2023-04-25T06:44:28;7.60;99.90
7445;DHT22;3764;48.126;11.594;2023-04-25T06:46:55;7.60;99.90
7445;DHT22;3764;48.126;11.594;2023-04-25T06:49:23;7.60;99.90
7445;DHT22;3764;48.126;11.594;2023-04-25T06:51:50;7.60;99.90
7445;DHT22;3764;48.126;11.594;2023-04-25T06:54:18;7.70;99.90
7445;DHT22;3764;48.126;11.594;2023-04-25T06:56:45;7.70;99.90
7445;DHT22;3764;48.126;11.594;2023-04-25T06:59:12;7.70;99.90
7445;DHT22;3764;48.126;11.594;2023-04-25T07:01:39;7.70;99.90
7445;DHT22;3764;48.126;11.594;2023-04-25T07:04:07;7.70;99.90
7445;DHT22;3764;48.126;11.594;2023-04-25T07:06:35;7.80;99.90
7445;DHT22;3764;48.126;11.594;2023-04-25T07:09:07;7.70;99.90
7445;DHT22;3764;48.126;11.594;2023-04-25T07:11:35;7.70;99.90
7445;DHT22;3764;48.126;11.594;2023-04-25T07:14:04;7.70;99.90
7445;DHT22;3764;48.126;11.594;2023-04-25T07:16:31;7.80;99.90
7445;DHT22;3764;48.126;11.594;2023-04-25T07:19:07;7.80;99.90
7445;DHT22;3764;48.126;11.594;2023-04-25T07:21:49;7.80;99.90
7445;DHT22;3764;48.126;11.594;2023-04-25T07:24:16;7.80;99.90
7445;DHT22;3764;48.126;11.594;2023-04-25T07:26:43;7.90;99.90
7445;DHT22;3764;48.126;11.594;2023-04-25T07:29:11;8.00;99.90
7445;DHT22;3764;48.126;11.594;2023-04-25T07:31:38;8.00;99.90
7445;DHT22;3764;48.126;11.594;2023-04-25T07:34:05;8.00;99.90
7445;DHT22;3764;48.126;11.594;2023-04-25T07:36:32;8.00;99.90
7445;DHT22;3764;48.126;11.594;2023-04-25T07:39:01;8.10;99.90
7445;DHT22;3764;48.126;11.594;2023-04-25T07:41:29;8.10;99.90
7445;DHT22;3764;48.126;11.594;2023-04-25T07:43:56;8.20;99.90
7445;DHT22;3764;48.126;11.594;2023-04-25T07:46:23;8.20;99.90
7445;DHT22;3764;48.126;11.594;2023-04-25T07:48:50;8.20;99.90
7445;DHT22;3764;48.126;11.594;2023-04-25T07:51:17;8.30;99.90
7445;DHT22;3764;48.126;11.594;2023-04-25T07:53:45;8.30;99.90
7445;DHT22;3764;48.126;11.594;2023-04-25T07:56:13;8.40;99.90
7445;DHT22;3764;48.126;11.594;2023-04-25T07:58:40;8.40;99.90
7445;DHT22;3764;48.126;11.594;2023-04-25T08:01:07;8.40;99.90
7445;DHT22;3764;48.126;11.594;2023-04-25T08:03:35;8.40;99.90
7445;DHT22;3764;48.126;11.594;2023-04-25T08:06:02;8.50;99.90
7445;DHT22;3764;48.126;11.594;2023-04-25T08:08:29;8.50;99.90
7445;DHT22;3764;48.126;11.594;2023-04-25T08:10:56;8.60;99.90
7445;DHT22;3764;48.126;11.594;2023-04-25T08:13:24;8.70;99.90
7445;DHT22;3764;48.126;11.594;2023-04-25T08:15:51;8.70;99.90
7445;DHT22;3764;48.126;11.594;2023-04-25T08:18:18;8.80;99.90
7445;DHT22;3764;48.126;11.594;2023-04-25T08:20:46;8.90;99.90
7445;DHT22;3764;48.126;11.594;2023-04-25T08:23:13;9.00;99.90
7445;DHT22;3764;48.126;11.594;2023-04-25T08:25:40;9.10;99.90
7445;DHT22;3764;48.126;11.594;2023-04-25T08:28:07;9.20;99.90
7445;DHT22;3764;48.126;11.594;2023-04-25T08:30:36;9.30;99.90
7445;DHT22;3764;48.126;11.594;2023-04-25T08:33:03;9.40;99.90
7445;DHT22;3764;48.126;11.594;2023-04-25T08:35:30;9.40;99.90
7445;DHT22;3764;48.126;11.594;2023-04-25T08:37:58;9.50;99.90
7445;DHT22;3764;48.126;11.594;2023-04-25T08:40:27;9.50;99.90
7445;DHT22;3764;48.126;11.594;2023-04-25T08:42:56;9.50;99.90
7445;DHT22;3764;48.126;11.594;2023-04-25T08:45:25;9.50;99.90
7445;DHT22;3764;48.126;11.594;2023-04-25T08:47:57;9.60;99.90
7445;DHT22;3764;48.126;11.594;2023-04-25T08:50:24;9.60;99.90
7445;DHT22;3764;48.126;11.594;2023-04-25T08:52:53;9.60;99.90
7445;DHT22;3764;48.126;11.594;2023-04-25T08:55:21;9.60;99.90
7445;DHT22;3764;48.126;11.594;2023-04-25T08:57:49;9.70;99.90
7445;DHT22;3764;48.126;11.594;2023-04-25T09:00:18;9.80;99.90
7445;DHT22;3764;48.126;11.594;2023-04-25T09:02:46;9.80;99.90
7445;DHT22;3764;48.126;11.594;2023-04-25T09:05:15;9.90;99.90
7445;DHT22;3764;48.126;11.594;2023-04-25T09:07:42;10.00;99.90
7445;DHT22;3764;48.126;11.594;2023-04-25T09:10:09;10.00;99.90
7445;DHT22;3764;48.126;11.594;2023-04-25T09:12:36;10.10;99.90
7445;DHT22;3764;48.126;11.594;2023-04-25T09:15:05;10.20;99.90
7445;DHT22;3764;48.126;11.594;2023-04-25T09:17:32;10.20;99.90
7445;DHT22;3764;48.126;11.594;2023-04-25T09:20:08;10.30;99.90
7445;DHT22;3764;48.126;11.594;2023-04-25T09:22:37;10.50;99.90
7445;DHT22;3764;48.126;11.594;2023-04-25T09:25:08;10.50;99.90
7445;DHT22;3764;48.126;11.594;2023-04-25T09:27:36;10.60;99.90
7445;DHT22;3764;48.126;11.594;2023-04-25T09:30:03;10.70;99.90
7445;DHT22;3764;48.126;11.594;2023-04-25T09:32:31;10.70;99.90
7445;DHT22;3764;48.126;11.594;2023-04-25T09:34:58;10.80;99.90
7445;DHT22;3764;48.126;11.594;2023-04-25T09:37:26;10.80;99.90
7445;DHT22;3764;48.126;11.594;2023-04-25T09:39:56;10.80;99.90
7445;DHT22;3764;48.126;11.594;2023-04-25T09:42:25;10.80;99.90
7445;DHT22;3764;48.126;11.594;2023-04-25T09:44:55;10.80;99.90
7445;DHT22;3764;48.126;11.594;2023-04-25T09:47:23;10.80;99.90
7445;DHT22;3764;48.126;11.594;2023-04-25T09:49:52;10.80;99.90
7445;DHT22;3764;48.126;11.594;2023-04-25T09:52:21;10.80;99.90
7445;DHT22;3764;48.126;11.594;2023-04-25T09:54:49;10.90;99.90
7445;DHT22;3764;48.126;11.594;2023-04-25T09:57:19;10.90;99.90
7445;DHT22;3764;48.126;11.594;2023-04-25T09:59:48;11.00;99.90
7445;DHT22;3764;48.126;11.594;2023-04-25T10:02:17;11.20;99.90
7445;DHT22;3764;48.126;11.594;2023-04-25T10:04:48;11.10;99.90
7445;DHT22;3764;48.126;11.594;2023-04-25T10:07:18;11.20;99.90
7445;DHT22;3764;48.126;11.594;2023-04-25T10:09:48;11.30;99.90
7445;DHT22;3764;48.126;11.594;2023-04-25T10:12:18;11.40;99.90
7445;DHT22;3764;48.126;11.594;2023-04-25T10:14:46;11.40;99.90
7445;DHT22;3764;48.126;11.594;2023-04-25T10:17:14;11.40;99.90
7445;DHT22;3764;48.126;11.594;2023-04-25T10:19:41;11.40;99.90
7445;DHT22;3764;48.126;11.594;2023-04-25T10:22:12;11.40;99.90
7445;DHT22;3764;48.126;11.594;2023-04-25T10:24:41;11.40;99.90
7445;DHT22;3764;48.126;11.594;2023-04-25T10:27:08;11.40;99.90
7445;DHT22;3764;48.126;11.594;2023-04-25T10:29:37;11.40;99.90
7445;DHT22;3764;48.126;11.594;2023-04-25T10:32:04;11.50;99.90
7445;DHT22;3764;48.126;11.594;2023-04-25T10:34:39;11.50;99.90
7445;DHT22;3764;48.126;11.594;2023-04-25T10:37:09;11.40;99.90
7445;DHT22;3764;48.126;11.594;2023-04-25T10:39:38;11.50;99.90
7445;DHT22;3764;48.126;11.594;2023-04-25T10:42:05;11.50;99.90
7445;DHT22;3764;48.126;11.594;2023-04-25T10:44:33;11.50;99.90
7445;DHT22;3764;48.126;11.594;2023-04-25T10:47:02;11.40;99.90
7445;DHT22;3764;48.126;11.594;2023-04-25T10:49:36;11.10;99.90
7445;DHT22;3764;48.126;11.594;2023-04-25T10:52:17;10.80;99.90
7445;DHT22;3764;48.126;11.594;2023-04-25T10:54:49;10.60;99.90
7445;DHT22;3764;48.126;11.594;2023-04-25T10:57:28;10.40;99.90
7445;DHT22;3764;48.126;11.594;2023-04-25T10:59:59;10.40;99.90
7445;DHT22;3764;48.126;11.594;2023-04-25T11:02:28;10.30;99.90
7445;DHT22;3764;48.126;11.594;2023-04-25T11:04:56;10.20;99.90
7445;DHT22;3764;48.126;11.594;2023-04-25T11:07:29;10.20;99.90
7445;DHT22;3764;48.126;11.594;2023-04-25T11:10:02;10.20;99.90
7445;DHT22;3764;48.126;11.594;2023-04-25T11:12:30;10.30;99.90
7445;DHT22;3764;48.126;11.594;2023-04-25T11:15:02;10.30;99.90
7445;DHT22;3764;48.126;11.594;2023-04-25T11:17:31;10.30;99.90
7445;DHT22;3764;48.126;11.594;2023-04-25T11:19:58;10.20;99.90
7445;DHT22;3764;48.126;11.594;2023-04-25T11:22:27;10.20;99.90
7445;DHT22;3764;48.126;11.594;2023-04-25T11:24:55;10.10;99.90
7445;DHT22;3764;48.126;11.594;2023-04-25T11:27:22;10.10;99.90
7445;DHT22;3764;48.126;11.594;2023-04-25T11:29:50;10.10;99.90
7445;DHT22;3764;48.126;11.594;2023-04-25T11:32:18;10.10;99.90
7445;DHT22;3764;48.126;11.594;2023-04-25T11:34:47;10.10;99.90
7445;DHT22;3764;48.126;11.594;2023-04-25T11:37:14;10.10;99.90
7445;DHT22;3764;48.126;11.594;2023-04-25T11:39:45;10.00;99.90
7445;DHT22;3764;48.126;11.594;2023-04-25T11:42:13;10.00;99.90
7445;DHT22;3764;48.126;11.594;2023-04-25T11:44:40;10.00;99.90
7445;DHT22;3764;48.126;11.594;2023-04-25T11:47:07;10.00;99.90
7445;DHT22;3764;48.126;11.594;2023-04-25T11:49:35;10.10;99.90
7445;DHT22;3764;48.126;11.594;2023-04-25T11:52:06;9.90;99.90
7445;DHT22;3764;48.126;11.594;2023-04-25T11:54:35;9.70;99.90
7445;DHT22;3764;48.126;11.594;2023-04-25T11:57:03;9.60;99.90
7445;DHT22;3764;48.126;11.594;2023-04-25T11:59:30;9.40;99.90
7445;DHT22;3764;48.126;11.594;2023-04-25T12:01:57;9.10;99.90
7445;DHT22;3764;48.126;11.594;2023-04-25T12:04:30;9.00;99.90
7445;DHT22;3764;48.126;11.594;2023-04-25T12:06:58;9.00;99.90
7445;DHT22;3764;48.126;11.594;2023-04-25T12:09:32;9.00;99.90
7445;DHT22;3764;48.126;11.594;2023-04-25T12:12:00;9.10;99.90
7445;DHT22;3764;48.126;11.594;2023-04-25T12:14:30;9.10;99.90
7445;DHT22;3764;48.126;11.594;2023-04-25T12:16:59;9.10;99.90
7445;DHT22;3764;48.126;11.594;2023-04-25T12:19:31;9.10;99.90
7445;DHT22;3764;48.126;11.594;2023-04-25T12:22:00;9.10;99.90
7445;DHT22;3764;48.126;11.594;2023-04-25T12:24:28;9.10;99.90
7445;DHT22;3764;48.126;11.594;2023-04-25T12:27:01;9.20;99.90
7445;DHT22;3764;48.126;11.594;2023-04-25T12:29:30;9.20;99.90
7445;DHT22;3764;48.126;11.594;2023-04-25T12:31:58;9.20;99.90
7445;DHT22;3764;48.126;11.594;2023-04-25T12:34:25;9.20;99.90
7445;DHT22;3764;48.126;11.594;2023-04-25T12:36:52;9.10;99.90
7445;DHT22;3764;48.126;11.594;2023-04-25T12:39:20;9.00;99.90
7445;DHT22;3764;48.126;11.594;2023-04-25T12:41:49;9.00;99.90
7445;DHT22;3764;48.126;11.594;2023-04-25T12:44:17;9.00;99.90
7445;DHT22;3764;48.126;11.594;2023-04-25T12:46:45;9.00;99.90
7445;DHT22;3764;48.126;11.594;2023-04-25T12:49:12;8.90;99.90
7445;DHT22;3764;48.126;11.594;2023-04-25T12:51:39;8.90;99.90
7445;DHT22;3764;48.126;11.594;2023-04-25T12:54:07;8.90;99.90
7445;DHT22;3764;48.126;11.594;2023-04-25T12:56:35;8.90;99.90
7445;DHT22;3764;48.126;11.594;2023-04-25T12:59:02;8.90;99.90
7445;DHT22;3764;48.126;11.594;2023-04-25T13:01:31;8.90;99.90
7445;DHT22;3764;48.126;11.594;2023-04-25T13:03:58;8.90;99.90
7445;DHT22;3764;48.126;11.594;2023-04-25T13:06:26;9.00;99.90
7445;DHT22;3764;48.126;11.594;2023-04-25T13:08:53;9.00;99.90
7445;DHT22;3764;48.126;11.594;2023-04-25T13:11:20;9.00;99.90
7445;DHT22;3764;48.126;11.594;2023-04-25T13:13:47;9.00;99.90
7445;DHT22;3764;48.126;11.594;2023-04-25T13:16:14;8.90;99.90
7445;DHT22;3764;48.126;11.594;2023-04-25T13:18:43;8.90;99.90
7445;DHT22;3764;48.126;11.594;2023-04-25T13:21:10;8.90;99.90
7445;DHT22;3764;48.126;11.594;2023-04-25T13:23:38;8.90;99.90
7445;DHT22;3764;48.126;11.594;2023-04-25T13:26:06;8.80;99.90
7445;DHT22;3764;48.126;11.594;2023-04-25T13:28:33;8.80;99.90
7445;DHT22;3764;48.126;11.594;2023-04-25T13:31:00;8.80;99.90
7445;DHT22;3764;48.126;11.594;2023-04-25T13:33:27;8.80;99.90
7445;DHT22;3764;48.126;11.594;2023-04-25T13:35:55;8.80;99.90
7445;DHT22;3764;48.126;11.594;2023-04-25T13:38:25;8.80;99.90
7445;DHT22;3764;48.126;11.594;2023-04-25T13:40:52;8.80;99.90
7445;DHT22;3764;48.126;11.594;2023-04-25T13:43:20;8.80;99.90
7445;DHT22;3764;48.126;11.594;2023-04-25T13:45:47;8.80;99.90
7445;DHT22;3764;48.126;11.594;2023-04-25T13:48:15;8.80;99.90
7445;DHT22;3764;48.126;11.594;2023-04-25T13:50:42;8.80;99.90
7445;DHT22;3764;48.126;11.594;2023-04-25T13:53:10;8.70;99.90
7445;DHT22;3764;48.126;11.594;2023-04-25T13:55:37;8.70;99.90
7445;DHT22;3764;48.126;11.594;2023-04-25T13:58:04;8.70;99.90
7445;DHT22;3764;48.126;11.594;2023-04-25T14:00:35;8.60;99.90
7445;DHT22;3764;48.126;11.594;2023-04-25T14:03:03;8.60;99.90
7445;DHT22;3764;48.126;11.594;2023-04-25T14:05:33;8.50;99.90
7445;DHT22;3764;48.126;11.594;2023-04-25T14:08:07;8.40;99.90
7445;DHT22;3764;48.126;11.594;2023-04-25T14:10:36;8.40;99.90
7445;DHT22;3764;48.126;11.594;2023-04-25T14:13:04;8.30;99.90
7445;DHT22;3764;48.126;11.594;2023-04-25T14:15:32;8.30;99.90
7445;DHT22;3764;48.126;11.594;2023-04-25T14:18:00;8.30;99.90
7445;DHT22;3764;48.126;11.594;2023-04-25T14:20:28;8.30;99.90
7445;DHT22;3764;48.126;11.594;2023-04-25T14:22:55;8.30;99.90
7445;DHT22;3764;48.126;11.594;2023-04-25T14:25:24;8.30;99.90
7445;DHT22;3764;48.126;11.594;2023-04-25T14:27:52;8.30;99.90
7445;DHT22;3764;48.126;11.594;2023-04-25T14:30:20;8.30;99.90
7445;DHT22;3764;48.126;11.594;2023-04-25T14:32:48;8.30;99.90
7445;DHT22;3764;48.126;11.594;2023-04-25T14:35:16;8.30;99.90
7445;DHT22;3764;48.126;11.594;2023-04-25T14:37:43;8.30;99.90
7445;DHT22;3764;48.126;11.594;2023-04-25T14:40:10;8.30;99.90
7445;DHT22;3764;48.126;11.594;2023-04-25T14:42:39;8.40;99.90
7445;DHT22;3764;48.126;11.594;2023-04-25T14:45:08;8.40;99.90
7445;DHT22;3764;48.126;11.594;2023-04-25T14:47:36;8.50;99.90
7445;DHT22;3764;48.126;11.594;2023-04-25T14:50:04;8.60;99.90
7445;DHT22;3764;48.126;11.594;2023-04-25T14:52:31;8.70;99.90
7445;DHT22;3764;48.126;11.594;2023-04-25T14:54:58;8.70;99.90
7445;DHT22;3764;48.126;11.594;2023-04-25T14:57:27;8.70;99.90
7445;DHT22;3764;48.126;11.594;2023-04-25T14:59:54;8.80;99.90
7445;DHT22;3764;48.126;11.594;2023-04-25T15:02:23;8.80;99.90
7445;DHT22;3764;48.126;11.594;2023-04-25T15:04:50;8.80;99.90
7445;DHT22;3764;48.126;11.594;2023-04-25T15:07:17;8.90;99.90
7445;DHT22;3764;48.126;11.594;2023-04-25T15:09:47;8.90;99.90
7445;DHT22;3764;48.126;11.594;2023-04-25T15:12:14;8.90;99.90
7445;DHT22;3764;48.126;11.594;2023-04-25T15:14:42;8.80;99.90
7445;DHT22;3764;48.126;11.594;2023-04-25T15:17:09;8.80;99.90
7445;DHT22;3764;48.126;11.594;2023-04-25T15:19:40;8.90;99.90
7445;DHT22;3764;48.126;11.594;2023-04-25T15:22:07;8.90;99.90
7445;DHT22;3764;48.126;11.594;2023-04-25T15:24:34;8.90;99.90
7445;DHT22;3764;48.126;11.594;2023-04-25T15:27:02;8.90;99.90
7445;DHT22;3764;48.126;11.594;2023-04-25T15:29:30;8.90;99.90
7445;DHT22;3764;48.126;11.594;2023-04-25T15:31:57;9.00;99.90
7445;DHT22;3764;48.126;11.594;2023-04-25T15:34:24;8.90;99.90
7445;DHT22;3764;48.126;11.594;2023-04-25T15:36:53;8.90;99.90
7445;DHT22;3764;48.126;11.594;2023-04-25T15:39:20;8.90;99.90
7445;DHT22;3764;48.126;11.594;2023-04-25T15:41:47;9.00;99.90
7445;DHT22;3764;48.126;11.594;2023-04-25T15:44:14;9.00;99.90
7445;DHT22;3764;48.126;11.594;2023-04-25T15:46:41;8.90;99.90
7445;DHT22;3764;48.126;11.594;2023-04-25T15:49:10;9.00;99.90
7445;DHT22;3764;48.126;11.594;2023-04-25T15:51:37;9.00;99.90
7445;DHT22;3764;48.126;11.594;2023-04-25T15:54:06;9.10;99.90
7445;DHT22;3764;48.126;11.594;2023-04-25T15:56:33;9.10;99.90
7445;DHT22;3764;48.126;11.594;2023-04-25T15:59:00;9.10;99.90
7445;DHT22;3764;48.126;11.594;2023-04-25T16:01:28;9.00;99.90
7445;DHT22;3764;48.126;11.594;2023-04-25T16:03:55;9.00;99.90